Time;durP1;ratioP1;P1;durP2;ratioP2;P2;SDS_P1;SDS_P2;PMS_P1;PMS_P2;Temp;Humidity;BMP_temperature;BMP_pressure;BME280_temperature;BME280_humidity;BME280_pressure;Samples;Min_cycle;Max_cycle;Signal;HPM_P1;HPM_P2
2021/08/14 00:02:24;;;;;;;3.85;2.80;;;25.60;59.80;;;;;;4816253;29;92794;-11
2021/08/14 00:04:50;;;;;;;4.80;2.90;;;25.60;59.80;;;;;;4831790;29;94082;-5
2021/08/14 00:07:16;;;;;;;3.58;2.60;;;25.60;59.90;;;;;;4817285;29;92785;-5
2021/08/14 00:09:41;;;;;;;3.55;2.42;;;25.60;59.90;;;;;;4817346;29;93213;-14
2021/08/14 00:12:07;;;;;;;4.30;2.72;;;25.60;59.90;;;;;;4831191;29;94114;-14
2021/08/14 00:14:34;;;;;;;3.42;2.40;;;25.60;59.90;;;;;;4817435;29;92152;-15
2021/08/14 00:17:00;;;;;;;3.45;2.88;;;25.60;60.00;;;;;;4817297;29;92741;-10
2021/08/14 00:19:26;;;;;;;4.03;2.83;;;25.60;60.00;;;;;;4816931;29;93664;-6
2021/08/14 00:21:52;;;;;;;3.70;2.83;;;25.60;60.00;;;;;;4816597;29;92458;-13
2021/08/14 00:24:17;;;;;;;3.42;2.70;;;25.60;60.00;;;;;;4817385;29;92846;-8
2021/08/14 00:26:43;;;;;;;2.92;2.30;;;25.60;60.00;;;;;;4816969;29;92701;-12
2021/08/14 00:29:09;;;;;;;4.03;2.38;;;25.60;60.00;;;;;;4816409;29;95578;-6
2021/08/14 00:31:34;;;;;;;4.63;3.10;;;25.60;60.00;;;;;;4817361;29;93863;-5
2021/08/14 00:34:00;;;;;;;4.93;2.78;;;25.60;60.00;;;;;;4817380;29;92696;-10
2021/08/14 00:36:25;;;;;;;4.22;2.80;;;25.60;60.10;;;;;;4815977;29;93277;-11
2021/08/14 00:38:51;;;;;;;5.00;2.80;;;25.50;60.00;;;;;;4817190;29;93177;-10
2021/08/14 00:41:17;;;;;;;3.58;2.60;;;25.60;60.10;;;;;;4816124;29;93299;-8
2021/08/14 00:43:45;;;;;;;3.83;2.40;;;25.60;60.10;;;;;;4815586;29;93574;-11
2021/08/14 00:46:11;;;;;;;3.97;2.58;;;25.50;60.00;;;;;;4817016;29;92461;-17
2021/08/14 00:48:37;;;;;;;3.17;2.33;;;25.60;60.10;;;;;;4830290;29;94355;-5
2021/08/14 00:51:05;;;;;;;3.53;2.78;;;25.60;60.10;;;;;;4816353;29;94487;-6
2021/08/14 00:53:30;;;;;;;3.25;2.20;;;25.50;60.10;;;;;;4816805;29;94309;-9
2021/08/14 00:55:56;;;;;;;3.67;2.38;;;25.50;60.10;;;;;;4815820;29;92232;-5
2021/08/14 00:58:25;;;;;;;3.55;2.88;;;25.50;60.20;;;;;;4815061;29;93219;-7
2021/08/14 01:00:51;;;;;;;3.90;2.80;;;25.50;60.20;;;;;;4815504;29;93205;-10
2021/08/14 01:03:17;;;;;;;4.13;2.97;;;25.50;60.20;;;;;;4815941;29;92611;-13
2021/08/14 01:05:47;;;;;;;3.65;2.60;;;25.50;60.20;;;;;;4815819;29;93088;-10
2021/08/14 01:08:16;;;;;;;3.65;2.58;;;25.50;60.20;;;;;;4815609;29;92770;-6
2021/08/14 01:10:42;;;;;;;3.40;2.28;;;25.50;60.20;;;;;;4816398;29;92298;-6
2021/08/14 01:13:09;;;;;;;3.70;2.80;;;25.40;60.20;;;;;;4815625;29;92807;-14
2021/08/14 01:15:35;;;;;;;2.95;2.17;;;25.50;60.20;;;;;;4817055;29;92697;-6
2021/08/14 01:18:01;;;;;;;4.00;2.60;;;25.50;60.20;;;;;;4815692;29;94236;-5
2021/08/14 01:20:27;;;;;;;2.60;2.28;;;25.50;60.30;;;;;;4815918;29;93929;-7
2021/08/14 01:22:52;;;;;;;3.92;2.75;;;25.30;60.10;;;;;;4815456;29;92788;-10
2021/08/14 01:25:19;;;;;;;3.58;2.72;;;25.50;60.30;;;;;;4815734;29;92935;-8
2021/08/14 01:27:45;;;;;;;4.28;2.83;;;25.50;60.30;;;;;;4815675;29;94542;-13
2021/08/14 01:30:13;;;;;;;4.47;2.60;;;25.50;60.30;;;;;;4815745;29;94906;-7
2021/08/14 01:32:39;;;;;;;3.78;2.15;;;25.50;60.30;;;;;;4816113;29;92915;-7
2021/08/14 01:35:07;;;;;;;4.55;2.42;;;25.40;60.30;;;;;;4816481;29;91859;-7
2021/08/14 01:37:33;;;;;;;4.68;2.75;;;25.50;60.40;;;;;;4816154;29;94321;-8
2021/08/14 01:39:59;;;;;;;3.83;2.60;;;25.40;60.30;;;;;;4815448;29;92862;-5
2021/08/14 01:42:25;;;;;;;3.63;2.90;;;25.50;60.40;;;;;;4815202;29;93531;-9
2021/08/14 01:44:52;;;;;;;5.05;2.60;;;25.40;60.40;;;;;;4816216;29;92215;-7
2021/08/14 01:47:19;;;;;;;4.03;2.70;;;25.50;60.50;;;;;;4815453;29;94244;-13
2021/08/14 01:49:45;;;;;;;3.08;2.30;;;25.40;60.40;;;;;;4815938;29;93366;-8
2021/08/14 01:52:11;;;;;;;3.03;2.45;;;25.40;60.40;;;;;;4830134;29;93380;-8
2021/08/14 01:54:37;;;;;;;3.15;2.08;;;25.40;60.40;;;;;;4815958;29;92220;-16
2021/08/14 01:57:04;;;;;;;2.97;2.20;;;25.40;60.50;;;;;;4815276;29;94226;-6
2021/08/14 01:59:30;;;;;;;3.70;2.30;;;25.40;60.50;;;;;;4815430;29;92447;-9
2021/08/14 02:01:55;;;;;;;3.72;2.60;;;25.40;60.50;;;;;;4830232;29;92437;-8
2021/08/14 02:04:21;;;;;;;4.20;2.67;;;25.20;60.40;;;;;;4830165;29;92201;-5
2021/08/14 02:06:46;;;;;;;2.88;2.40;;;25.40;60.60;;;;;;4815194;29;94081;-6
2021/08/14 02:09:12;;;;;;;3.33;2.15;;;25.40;60.60;;;;;;4829232;29;94530;-11
2021/08/14 02:11:38;;;;;;;2.63;2.20;;;25.40;60.60;;;;;;4815495;29;94202;-12
2021/08/14 02:14:05;;;;;;;3.70;2.47;;;25.40;60.60;;;;;;4815831;29;93094;-5
2021/08/14 02:16:33;;;;;;;3.25;2.47;;;25.40;60.70;;;;;;4815257;29;93225;-6
2021/08/14 02:18:58;;;;;;;3.20;2.55;;;25.40;60.70;;;;;;4815203;29;93705;-12
2021/08/14 02:21:24;;;;;;;3.67;2.70;;;25.30;60.60;;;;;;4815852;29;92896;-8
2021/08/14 02:23:51;;;;;;;4.15;2.63;;;25.30;60.60;;;;;;4816163;29;92598;-5
2021/08/14 02:26:17;;;;;;;4.05;2.65;;;25.30;60.70;;;;;;4815281;29;93302;-8
2021/08/14 02:28:43;;;;;;;4.40;2.30;;;25.30;60.70;;;;;;4815355;29;92437;-5
2021/08/14 02:31:08;;;;;;;2.80;2.30;;;25.30;60.70;;;;;;4815346;29;94103;-7
2021/08/14 02:33:34;;;;;;;4.15;2.47;;;25.30;60.70;;;;;;4815341;29;93052;-16
2021/08/14 02:36:01;;;;;;;3.17;2.47;;;25.30;60.80;;;;;;4815446;29;93184;-5
2021/08/14 02:38:27;;;;;;;3.05;2.28;;;25.30;60.70;;;;;;4829032;29;92875;-6
2021/08/14 02:40:52;;;;;;;3.50;2.28;;;25.30;60.80;;;;;;4815640;29;93384;-18
2021/08/14 02:43:18;;;;;;;3.35;2.50;;;25.30;60.90;;;;;;4814149;29;92543;-7
2021/08/14 02:45:44;;;;;;;2.95;2.45;;;25.30;60.90;;;;;;4813976;29;93205;-16
2021/08/14 02:48:10;;;;;;;3.53;2.58;;;25.30;60.90;;;;;;4828382;29;95148;-5
2021/08/14 02:50:43;;;;;;;2.63;1.98;;;25.30;60.90;;;;;;4815553;29;93006;-5
2021/08/14 02:53:09;;;;;;;3.80;2.63;;;25.30;61.00;;;;;;4815449;29;92351;-14
2021/08/14 02:55:35;;;;;;;3.15;2.13;;;25.30;61.00;;;;;;4813379;29;94236;-10
2021/08/14 02:58:00;;;;;;;3.53;2.38;;;25.30;61.10;;;;;;4813406;29;95862;-10
2021/08/14 03:00:26;;;;;;;3.28;2.47;;;25.30;61.10;;;;;;4814734;29;92194;-8
2021/08/14 03:02:52;;;;;;;3.88;2.55;;;25.30;61.20;;;;;;4813924;29;92820;-11
2021/08/14 03:05:17;;;;;;;3.55;2.55;;;25.30;61.10;;;;;;4814269;29;93194;-7
2021/08/14 03:07:43;;;;;;;3.85;2.80;;;25.30;61.10;;;;;;4813472;29;92890;-6
2021/08/14 03:10:09;;;;;;;2.63;2.10;;;25.20;61.00;;;;;;4815212;29;92606;-10
2021/08/14 03:12:34;;;;;;;3.33;2.10;;;25.30;61.10;;;;;;4815208;29;92034;-6
2021/08/14 03:15:00;;;;;;;3.25;2.42;;;25.30;61.30;;;;;;4815400;29;93309;-18
2021/08/14 03:17:26;;;;;;;3.55;2.78;;;25.20;61.20;;;;;;4814467;29;92848;-6
2021/08/14 03:19:51;;;;;;;3.50;2.28;;;25.30;61.20;;;;;;4814589;29;94062;-13
2021/08/14 03:22:17;;;;;;;3.20;2.30;;;25.20;61.10;;;;;;4813614;29;93379;-6
2021/08/14 03:24:43;;;;;;;3.80;2.25;;;25.20;61.10;;;;;;4814524;29;93260;-6
2021/08/14 03:27:08;;;;;;;2.67;2.20;;;25.30;61.80;;;;;;4829914;29;93825;-14
2021/08/14 03:29:34;;;;;;;3.58;2.60;;;25.20;61.20;;;;;;4828948;29;92257;-15
2021/08/14 03:32:00;;;;;;;3.47;2.67;;;25.20;61.20;;;;;;4828363;29;92798;-10
2021/08/14 03:34:25;;;;;;;3.03;2.10;;;25.20;61.20;;;;;;4814690;29;93215;-8
2021/08/14 03:36:51;;;;;;;2.47;2.15;;;25.20;61.30;;;;;;4816357;29;92803;-7
2021/08/14 03:39:17;;;;;;;3.00;2.20;;;25.20;61.20;;;;;;4817974;29;92941;-13
2021/08/14 03:41:43;;;;;;;2.78;2.17;;;25.20;61.20;;;;;;4817072;29;93341;-7
2021/08/14 03:44:09;;;;;;;3.17;2.35;;;25.20;61.20;;;;;;4816475;29;93774;-17
2021/08/14 03:46:34;;;;;;;3.25;2.20;;;25.20;61.20;;;;;;4830329;29;93795;-8
2021/08/14 03:49:00;;;;;;;4.53;2.30;;;25.20;61.20;;;;;;4817111;29;93371;-18
2021/08/14 03:51:25;;;;;;;3.90;2.28;;;25.20;61.20;;;;;;4817127;29;93470;-7
2021/08/14 03:53:51;;;;;;;3.03;2.20;;;25.20;61.20;;;;;;4816666;29;93321;-7
2021/08/14 03:56:17;;;;;;;3.80;2.53;;;25.20;61.20;;;;;;4816357;29;93546;-6
2021/08/14 03:58:42;;;;;;;3.40;2.58;;;25.20;61.20;;;;;;4816548;29;93351;-7
2021/08/14 04:01:08;;;;;;;4.90;2.33;;;25.10;61.20;;;;;;4816812;29;91547;-12
2021/08/14 04:03:33;;;;;;;2.33;1.90;;;25.10;61.20;;;;;;4816328;29;93499;-6
2021/08/14 04:05:59;;;;;;;3.08;2.30;;;25.20;61.30;;;;;;4804505;29;92973;-18
2021/08/14 04:08:25;;;;;;;2.60;2.15;;;25.10;61.20;;;;;;4811720;29;93246;-5
2021/08/14 04:10:51;;;;;;;3.00;2.13;;;25.10;61.30;;;;;;4798801;29;92171;-13
2021/08/14 04:13:17;;;;;;;2.38;2.05;;;25.10;61.20;;;;;;4804277;29;93002;-5
2021/08/14 04:15:43;;;;;;;3.55;2.42;;;25.20;61.40;;;;;;4812023;29;94761;-7
2021/08/14 04:18:12;;;;;;;3.47;2.20;;;25.20;61.40;;;;;;4799021;29;93395;-16
2021/08/14 04:20:38;;;;;;;3.35;2.50;;;25.20;61.30;;;;;;4798387;29;92845;-10
2021/08/14 04:23:04;;;;;;;2.35;1.83;;;25.10;61.30;;;;;;4798959;29;94902;-5
2021/08/14 04:25:29;;;;;;;2.95;2.38;;;25.10;61.30;;;;;;4803551;29;92882;-5
2021/08/14 04:27:55;;;;;;;2.63;2.13;;;25.10;61.30;;;;;;4799279;29;92980;-13
2021/08/14 04:30:22;;;;;;;3.00;1.90;;;25.10;61.30;;;;;;4798631;29;92774;-11
2021/08/14 04:32:48;;;;;;;2.70;1.98;;;25.10;61.30;;;;;;4796487;29;95496;-7
2021/08/14 04:35:15;;;;;;;3.20;2.10;;;25.10;61.30;;;;;;4798002;29;93092;-5
2021/08/14 04:37:41;;;;;;;2.35;1.80;;;25.10;61.30;;;;;;4816730;29;92236;-8
2021/08/14 04:40:09;;;;;;;2.42;1.95;;;25.10;61.40;;;;;;4804373;29;93158;-18
2021/08/14 04:42:36;;;;;;;2.25;1.90;;;25.10;61.40;;;;;;4816722;29;93284;-10
2021/08/14 04:45:03;;;;;;;3.03;2.20;;;25.10;61.40;;;;;;4816765;29;95480;-5
2021/08/14 04:47:28;;;;;;;2.42;2.00;;;25.10;61.40;;;;;;4815697;29;92867;-14
2021/08/14 04:49:54;;;;;;;2.40;1.92;;;25.10;61.40;;;;;;4816845;29;91740;-11
2021/08/14 04:52:19;;;;;;;2.17;1.98;;;25.10;61.40;;;;;;4830339;29;94840;-12
2021/08/14 04:54:45;;;;;;;3.38;1.92;;;25.10;61.40;;;;;;4816223;29;93236;-11
2021/08/14 04:57:11;;;;;;;2.40;1.98;;;25.10;61.40;;;;;;4816651;29;93599;-6
2021/08/14 04:59:36;;;;;;;2.78;2.42;;;25.10;61.40;;;;;;4816377;29;92433;-7
2021/08/14 05:02:03;;;;;;;2.25;1.85;;;25.40;61.70;;;;;;4816493;29;92754;-13
2021/08/14 05:04:29;;;;;;;2.92;1.83;;;25.10;61.40;;;;;;4816454;29;94356;-12
2021/08/14 05:06:55;;;;;;;3.00;2.05;;;25.10;61.50;;;;;;4816483;29;92694;-16
2021/08/14 05:09:21;;;;;;;3.95;2.20;;;25.20;61.50;;;;;;4815878;29;92788;-6
2021/08/14 05:11:47;;;;;;;3.67;2.30;;;25.10;61.40;;;;;;4816638;29;93225;-7
2021/08/14 05:14:12;;;;;;;1.95;1.63;;;25.10;61.30;;;;;;4816662;29;92411;-14
2021/08/14 05:16:38;;;;;;;2.90;2.25;;;25.10;61.10;;;;;;4803438;29;92448;-15
2021/08/14 05:19:04;;;;;;;2.38;1.90;;;25.20;61.10;;;;;;4798081;29;93070;-18
2021/08/14 05:21:30;;;;;;;3.35;2.17;;;25.20;60.90;;;;;;4798071;29;93965;-5
2021/08/14 05:23:56;;;;;;;2.53;2.00;;;25.20;60.90;;;;;;4798293;29;93562;-9
2021/08/14 05:26:22;;;;;;;2.70;2.10;;;25.20;60.90;;;;;;4829708;29;93832;-8
2021/08/14 05:28:48;;;;;;;2.75;2.25;;;25.20;60.90;;;;;;4813518;29;92985;-10
2021/08/14 05:31:13;;;;;;;2.85;2.10;;;25.20;61.00;;;;;;4816234;29;93143;-7
2021/08/14 05:33:39;;;;;;;2.38;2.13;;;25.20;61.10;;;;;;4816480;29;92995;-5
2021/08/14 05:36:08;;;;;;;3.67;2.13;;;25.20;61.10;;;;;;4816198;29;92271;-5
2021/08/14 05:38:34;;;;;;;3.10;2.40;;;25.20;61.00;;;;;;4816967;29;92300;-17
2021/08/14 05:40:59;;;;;;;3.10;2.15;;;25.20;61.00;;;;;;4815768;29;93307;-7
2021/08/14 05:43:25;;;;;;;1.92;1.70;;;25.20;61.50;;;;;;4814795;29;95175;-6
2021/08/14 05:45:50;;;;;;;3.17;1.95;;;25.50;61.10;;;;;;4815518;29;93339;-9
2021/08/14 05:48:17;;;;;;;5.80;1.95;;;25.30;60.80;;;;;;4816138;29;92745;-13
2021/08/14 05:50:44;;;;;;;3.00;1.85;;;25.30;60.50;;;;;;4815128;29;93353;-11
2021/08/14 05:53:09;;;;;;;3.75;2.17;;;25.50;60.60;;;;;;4815618;29;92936;-5
2021/08/14 05:55:35;;;;;;;3.17;1.95;;;25.40;60.10;;;;;;4815802;29;93106;-8
2021/08/14 05:58:03;;;;;;;5.85;2.60;;;25.50;59.90;;;;;;4810797;29;93332;-8
2021/08/14 06:00:29;;;;;;;6.20;2.00;;;25.70;59.40;;;;;;4796737;29;93499;-5
2021/08/14 06:02:54;;;;;;;5.78;2.65;;;25.50;58.80;;;;;;4797401;29;92525;-8
2021/08/14 06:05:20;;;;;;;5.35;2.90;;;25.50;58.40;;;;;;4797725;29;93030;-5
2021/08/14 06:07:49;;;;;;;4.30;2.30;;;25.50;58.10;;;;;;4797087;29;92952;-5
2021/08/14 06:10:16;;;;;;;7.15;2.83;;;25.50;58.00;;;;;;4801695;29;94230;-6
2021/08/14 06:12:43;;;;;;;8.20;2.97;;;25.50;57.70;;;;;;4814533;29;94609;-8
2021/08/14 06:15:09;;;;;;;6.00;2.72;;;25.50;57.60;;;;;;4815303;29;93095;-6
2021/08/14 06:17:34;;;;;;;10.07;3.08;;;25.50;57.50;;;;;;4814768;29;92865;-14
2021/08/14 06:20:00;;;;;;;10.63;2.90;;;25.50;57.30;;;;;;4828501;29;94563;-7
2021/08/14 06:22:26;;;;;;;7.80;2.60;;;25.50;57.30;;;;;;4828385;29;94396;-8
2021/08/14 06:24:53;;;;;;;8.35;2.65;;;25.50;57.10;;;;;;4828832;29;93167;-7
2021/08/14 06:27:19;;;;;;;9.43;3.10;;;25.50;56.70;;;;;;4815391;29;92504;-7
2021/08/14 06:29:45;;;;;;;12.05;3.28;;;25.50;56.10;;;;;;4814664;29;94575;-11
2021/08/14 06:32:11;;;;;;;12.52;2.97;;;25.40;55.80;;;;;;4815417;29;92945;-12
2021/08/14 06:34:37;;;;;;;9.00;3.10;;;25.40;56.20;;;;;;4814942;29;93753;-14
2021/08/14 06:37:03;;;;;;;11.63;3.05;;;25.40;55.90;;;;;;4814802;29;92555;-8
2021/08/14 06:39:29;;;;;;;10.88;2.90;;;25.40;55.60;;;;;;4813683;29;94455;-10
2021/08/14 06:41:54;;;;;;;10.93;2.88;;;25.40;55.70;;;;;;4814400;29;92634;-14
2021/08/14 06:44:20;;;;;;;10.35;3.15;;;25.40;55.80;;;;;;4815514;29;92336;-5
2021/08/14 06:46:46;;;;;;;7.70;2.95;;;25.40;55.80;;;;;;4814376;29;92590;-7
2021/08/14 06:49:11;;;;;;;15.05;3.80;;;25.40;55.80;;;;;;4828647;29;94329;-15
2021/08/14 06:51:38;;;;;;;9.68;3.30;;;25.40;55.80;;;;;;4815515;29;94080;-5
2021/08/14 06:54:05;;;;;;;7.63;2.85;;;25.40;55.80;;;;;;4815677;29;92723;-11
2021/08/14 06:56:30;;;;;;;7.93;2.92;;;25.40;55.70;;;;;;4815912;29;93068;-6
2021/08/14 06:58:56;;;;;;;16.83;4.47;;;25.40;55.70;;;;;;4813834;29;94214;-7
2021/08/14 07:01:21;;;;;;;18.45;5.18;;;25.40;55.60;;;;;;4828875;29;96624;-13
2021/08/14 07:03:47;;;;;;;16.60;4.50;;;25.40;55.60;;;;;;4828850;29;92931;-8
2021/08/14 07:06:24;;;;;;;18.45;4.03;;;25.40;55.70;;;;;;4815044;29;93170;-13
2021/08/14 07:08:50;;;;;;;22.70;4.72;;;25.30;55.70;;;;;;4813840;29;94299;-8
2021/08/14 07:11:17;;;;;;;20.08;4.80;;;25.40;55.80;;;;;;4814443;29;93414;-6
2021/08/14 07:13:43;;;;;;;17.50;4.70;;;25.40;55.80;;;;;;4818079;29;92443;-11
2021/08/14 07:16:09;;;;;;;28.25;6.07;;;25.40;55.90;;;;;;4818041;29;91624;-10
2021/08/14 07:18:35;;;;;;;40.10;7.68;;;25.40;55.90;;;;;;4817718;29;93084;-7
2021/08/14 07:21:01;;;;;;;32.40;6.75;;;25.40;56.00;;;;;;4816612;29;93056;-5
2021/08/14 07:23:26;;;;;;;36.72;7.95;;;25.40;56.50;;;;;;4817091;29;94402;-8
2021/08/14 07:25:52;;;;;;;38.17;7.22;;;25.40;55.70;;;;;;4817490;29;93270;-9
2021/08/14 07:28:22;;;;;;;28.98;7.43;;;25.50;55.90;;;;;;4816958;29;92612;-9
2021/08/14 07:30:49;;;;;;;28.10;6.82;;;25.50;55.90;;;;;;4816471;29;92957;-7
2021/08/14 07:33:15;;;;;;;37.97;7.88;;;25.50;55.80;;;;;;4816619;29;93024;-11
2021/08/14 07:35:41;;;;;;;30.83;7.00;;;25.50;55.60;;;;;;4816743;29;92649;-6
2021/08/14 07:38:07;;;;;;;33.72;6.78;;;25.50;55.70;;;;;;4821991;29;93129;-5
2021/08/14 07:40:33;;;;;;;25.05;6.18;;;25.50;55.70;;;;;;4821936;29;92390;-5
2021/08/14 07:42:58;;;;;;;25.15;5.75;;;25.50;55.80;;;;;;4832291;29;92880;-7
2021/08/14 07:45:24;;;;;;;23.13;6.75;;;25.40;55.70;;;;;;4817085;29;93064;-6
2021/08/14 07:47:51;;;;;;;22.05;5.93;;;25.50;55.90;;;;;;4816646;29;93636;-17
2021/08/14 07:50:21;;;;;;;21.88;5.60;;;25.40;55.90;;;;;;4817041;29;93272;-5
2021/08/14 07:52:47;;;;;;;20.15;6.00;;;25.50;56.10;;;;;;4817444;29;92374;-13
2021/08/14 07:55:13;;;;;;;18.50;5.53;;;25.50;56.50;;;;;;4817707;29;92480;-6
2021/08/14 07:57:40;;;;;;;19.48;5.88;;;25.50;56.40;;;;;;4817123;29;93060;-6
2021/08/14 08:00:07;;;;;;;23.42;6.20;;;25.50;56.90;;;;;;4814637;29;93510;-14
2021/08/14 08:02:33;;;;;;;22.00;5.97;;;25.50;57.00;;;;;;4817013;29;92715;-9
2021/08/14 08:04:59;;;;;;;21.15;6.18;;;25.50;57.10;;;;;;4816700;29;92557;-6
2021/08/14 08:07:24;;;;;;;23.90;6.78;;;25.50;57.10;;;;;;4815024;29;96468;-15
2021/08/14 08:09:50;;;;;;;22.55;6.57;;;25.60;57.30;;;;;;4816485;29;92832;-7
2021/08/14 08:12:15;;;;;;;18.35;6.43;;;25.50;57.30;;;;;;4816535;29;93627;-10
2021/08/14 08:14:41;;;;;;;20.00;5.85;;;25.50;57.50;;;;;;4816512;29;92255;-6
2021/08/14 08:17:07;;;;;;;21.48;6.32;;;25.50;57.70;;;;;;4815573;29;93239;-9
2021/08/14 08:19:32;;;;;;;18.08;6.50;;;25.50;57.80;;;;;;4803950;29;93161;-8
2021/08/14 08:21:58;;;;;;;14.73;4.85;;;25.50;58.00;;;;;;4815979;29;92575;-7
2021/08/14 08:24:24;;;;;;;17.10;5.70;;;25.50;58.00;;;;;;4830405;29;92185;-5
2021/08/14 08:26:49;;;;;;;14.00;5.10;;;25.50;58.00;;;;;;4801147;29;93540;-6
2021/08/14 08:29:15;;;;;;;19.67;5.57;;;25.50;57.90;;;;;;4810731;29;93000;-18
2021/08/14 08:31:42;;;;;;;12.48;4.82;;;25.50;57.80;;;;;;4817041;29;92976;-6
2021/08/14 08:34:07;;;;;;;14.70;4.75;;;25.50;57.60;;;;;;4815955;29;92454;-7
2021/08/14 08:36:33;;;;;;;12.50;5.25;;;25.50;57.50;;;;;;4815637;29;93969;-14
2021/08/14 08:38:59;;;;;;;18.10;4.68;;;25.50;57.50;;;;;;4814205;29;96779;-14
2021/08/14 08:41:25;;;;;;;14.05;4.40;;;25.50;57.20;;;;;;4830378;29;92855;-6
2021/08/14 08:43:50;;;;;;;16.67;5.07;;;25.50;57.20;;;;;;4801878;29;92621;-9
2021/08/14 08:46:19;;;;;;;15.02;4.93;;;25.50;57.30;;;;;;4796431;29;93179;-11
2021/08/14 08:48:52;;;;;;;16.83;5.03;;;25.50;57.40;;;;;;4804167;29;93995;-15
2021/08/14 08:51:24;;;;;;;13.75;4.80;;;25.50;57.20;;;;;;4815593;29;92584;-8
2021/08/14 08:53:51;;;;;;;14.27;4.50;;;25.60;57.10;;;;;;4815920;29;92497;-6
2021/08/14 08:56:16;;;;;;;13.30;4.15;;;25.60;57.00;;;;;;4815256;29;93128;-16
2021/08/14 08:58:42;;;;;;;15.27;4.68;;;25.60;57.00;;;;;;4815545;29;94656;-7
2021/08/14 09:01:08;;;;;;;12.32;4.13;;;25.60;56.80;;;;;;4815693;29;93217;-12
2021/08/14 09:03:33;;;;;;;15.02;4.57;;;25.50;56.70;;;;;;4816255;29;93019;-8
2021/08/14 09:05:59;;;;;;;20.42;4.75;;;25.50;56.80;;;;;;4815887;29;93237;-10
2021/08/14 09:08:25;;;;;;;14.43;4.18;;;25.50;56.80;;;;;;4816812;29;93057;-11
2021/08/14 09:11:12;;;;;;;11.93;3.80;;;25.60;56.80;;;;;;4803687;29;92717;-11
2021/08/14 09:13:39;;;;;;;8.40;3.70;;;25.60;56.70;;;;;;4815490;29;92795;-11
2021/08/14 09:16:22;;;;;;;11.90;4.20;;;25.60;56.70;;;;;;4815720;29;94869;-12
2021/08/14 09:19:00;;;;;;;12.43;3.80;;;25.60;56.60;;;;;;4815876;29;94415;-7
2021/08/14 09:21:31;;;;;;;12.75;3.72;;;25.70;56.80;;;;;;4816315;29;93396;-11
2021/08/14 09:23:57;;;;;;;12.27;4.43;;;25.60;56.70;;;;;;4815744;29;93066;-6
2021/08/14 09:26:25;;;;;;;9.40;3.75;;;25.60;56.70;;;;;;4815288;29;93593;-8
2021/08/14 09:29:05;;;;;;;13.63;4.30;;;25.80;56.90;;;;;;4815434;29;93739;-8
2021/08/14 09:31:50;;;;;;;10.13;3.90;;;25.60;56.80;;;;;;4816215;29;92875;-8
2021/08/14 09:34:18;;;;;;;9.95;3.63;;;25.60;56.70;;;;;;4815509;29;93147;-16
2021/08/14 09:36:43;;;;;;;12.70;4.10;;;25.60;56.80;;;;;;4815594;29;95978;-7
2021/08/14 09:39:09;;;;;;;15.38;4.20;;;25.60;56.70;;;;;;4815609;29;93114;-8
2021/08/14 09:41:35;;;;;;;9.95;4.13;;;25.50;56.50;;;;;;4815808;29;92876;-15
2021/08/14 09:44:00;;;;;;;17.00;5.10;;;25.60;56.80;;;;;;4814785;29;91989;-9
2021/08/14 09:46:42;;;;;;;24.95;7.18;;;25.60;56.60;;;;;;4814823;29;93068;-7
2021/08/14 09:49:10;;;;;;;81.85;19.60;;;25.60;56.80;;;;;;4829455;29;96025;-8
2021/08/14 09:51:36;;;;;;;74.43;18.52;;;25.60;56.90;;;;;;4829206;29;93175;-5
2021/08/14 09:54:04;;;;;;;60.28;14.60;;;25.50;56.90;;;;;;4814743;29;92532;-7
2021/08/14 09:56:36;;;;;;;52.47;12.55;;;25.60;57.50;;;;;;4813326;29;94118;-13
2021/08/14 09:59:04;;;;;;;44.90;12.77;;;25.50;57.40;;;;;;4815361;29;93038;-9
2021/08/14 10:01:32;;;;;;;52.17;13.52;;;25.50;57.80;;;;;;4814907;29;92823;-5
2021/08/14 10:03:58;;;;;;;45.78;11.27;;;25.70;57.70;;;;;;4814645;29;92205;-14
2021/08/14 10:06:26;;;;;;;51.50;11.95;;;25.50;58.70;;;;;;4814249;29;94967;-6
2021/08/14 10:08:51;;;;;;;31.75;9.60;;;25.60;58.40;;;;;;4814861;29;92406;-7
2021/08/14 10:11:18;;;;;;;35.05;9.57;;;25.60;58.80;;;;;;4815300;29;92134;-5
2021/08/14 10:13:47;;;;;;;39.05;9.93;;;25.50;58.70;;;;;;4814317;29;93010;-8
2021/08/14 10:16:14;;;;;;;32.85;9.05;;;25.60;59.00;;;;;;4813479;29;94078;-5
2021/08/14 10:18:44;;;;;;;34.33;8.88;;;25.60;59.00;;;;;;4813824;29;93371;-9
2021/08/14 10:21:12;;;;;;;24.98;8.23;;;25.60;59.00;;;;;;4814823;29;92888;-18
2021/08/14 10:23:39;;;;;;;26.15;7.68;;;25.60;59.00;;;;;;4814907;29;93259;-6
2021/08/14 10:26:14;;;;;;;27.60;6.68;;;25.60;58.90;;;;;;4828598;29;94293;-10
2021/08/14 10:28:53;;;;;;;29.17;8.68;;;25.40;58.50;;;;;;4814023;29;93215;-11
2021/08/14 10:31:31;;;;;;;26.77;7.70;;;25.50;58.50;;;;;;4814564;29;92828;-9
2021/08/14 10:34:12;;;;;;;21.15;6.78;;;25.50;58.50;;;;;;4814023;29;92087;-11
2021/08/14 10:36:42;;;;;;;22.05;6.57;;;25.50;58.30;;;;;;4813516;29;93198;-12
2021/08/14 10:39:16;;;;;;;20.83;6.55;;;25.50;58.40;;;;;;4811906;29;92849;-16
2021/08/14 10:41:43;;;;;;;23.50;6.53;;;25.60;58.20;;;;;;4814404;29;94405;-7
2021/08/14 10:44:09;;;;;;;22.60;6.72;;;25.50;58.80;;;;;;4812894;29;93757;-6
2021/08/14 10:47:01;;;;;;;21.73;6.40;;;25.50;59.00;;;;;;4816153;29;93295;-7
2021/08/14 10:49:32;;;;;;;24.00;6.93;;;25.50;59.00;;;;;;4817352;29;93239;-9
2021/08/14 10:52:01;;;;;;;25.55;6.53;;;25.50;58.90;;;;;;4831982;29;93147;-6
2021/08/14 10:54:30;;;;;;;20.50;5.82;;;25.50;58.10;;;;;;4817270;29;93237;-8
2021/08/14 10:57:04;;;;;;;17.88;6.10;;;25.60;58.20;;;;;;4817372;29;93309;-14
2021/08/14 10:59:38;;;;;;;18.52;5.82;;;25.60;58.00;;;;;;4817315;29;92889;-9
2021/08/14 11:02:10;;;;;;;15.88;5.60;;;25.50;57.90;;;;;;4817715;29;92314;-19
2021/08/14 11:04:39;;;;;;;21.77;6.68;;;25.50;57.90;;;;;;4818028;29;92734;-5
2021/08/14 11:07:17;;;;;;;21.85;6.38;;;25.50;57.80;;;;;;4830324;29;96330;-6
2021/08/14 11:09:45;;;;;;;18.27;6.32;;;25.50;57.70;;;;;;4817015;29;93879;-18
2021/08/14 11:12:30;;;;;;;23.30;6.38;;;25.50;57.70;;;;;;4817968;29;93247;-16
2021/08/14 11:15:40;;;;;;;19.30;6.10;;;25.50;57.50;;;;;;4816884;29;92491;-8
2021/08/14 11:18:12;;;;;;;21.02;7.22;;;25.60;57.40;;;;;;4799370;29;93207;-7
2021/08/14 11:20:39;;;;;;;23.48;6.18;;;25.70;57.30;;;;;;4798691;29;92819;-10
2021/08/14 11:23:23;;;;;;;22.13;6.35;;;25.60;57.10;;;;;;4799031;29;92930;-7
2021/08/14 11:25:50;;;;;;;13.95;5.55;;;25.70;57.20;;;;;;4816687;29;92539;-5
2021/08/14 11:28:30;;;;;;;18.77;5.85;;;25.60;57.10;;;;;;4816455;29;93050;-18
2021/08/14 11:31:03;;;;;;;16.35;5.40;;;25.70;56.90;;;;;;4816558;29;93227;-17
2021/08/14 11:33:35;;;;;;;18.83;5.97;;;25.70;56.80;;;;;;4816584;29;93587;-14
2021/08/14 11:36:10;;;;;;;16.85;6.47;;;25.70;56.90;;;;;;4816690;29;93047;-5
2021/08/14 11:38:44;;;;;;;16.20;5.45;;;25.90;57.00;;;;;;4817046;29;94204;-8
2021/08/14 11:41:19;;;;;;;13.35;4.90;;;25.70;56.80;;;;;;4831101;29;94476;-5
2021/08/14 11:43:51;;;;;;;15.52;5.50;;;25.70;56.50;;;;;;4831653;29;92654;-5
2021/08/14 11:46:22;;;;;;;15.25;5.35;;;25.60;56.40;;;;;;4817522;29;92695;-13
2021/08/14 11:48:48;;;;;;;12.40;4.45;;;25.80;56.70;;;;;;4817769;29;93479;-9
2021/08/14 11:51:25;;;;;;;17.67;4.93;;;25.80;56.50;;;;;;4817246;29;92516;-11
2021/08/14 11:54:07;;;;;;;11.95;4.85;;;25.90;56.40;;;;;;4831540;29;92672;-12
2021/08/14 11:56:34;;;;;;;11.50;4.55;;;25.80;56.20;;;;;;4816694;29;93514;-11
2021/08/14 11:59:12;;;;;;;14.75;5.07;;;25.80;56.10;;;;;;4810725;29;97825;-9
2021/08/14 12:01:51;;;;;;;15.10;4.80;;;25.90;56.20;;;;;;4816184;29;92624;-5
2021/08/14 12:04:22;;;;;;;12.13;5.13;;;25.90;56.20;;;;;;4830082;29;92601;-15
2021/08/14 12:06:58;;;;;;;14.52;5.03;;;25.70;56.10;;;;;;4815980;29;93133;-6
2021/08/14 12:09:27;;;;;;;12.07;4.40;;;25.90;56.40;;;;;;4810106;29;93352;-7
2021/08/14 12:11:58;;;;;;;14.77;4.43;;;25.70;56.10;;;;;;4800026;29;95025;-13
2021/08/14 12:14:25;;;;;;;12.18;3.92;;;26.00;56.30;;;;;;4817349;29;93242;-5
2021/08/14 12:17:01;;;;;;;10.20;3.70;;;25.90;56.10;;;;;;4831133;29;92249;-5
2021/08/14 12:19:50;;;;;;;12.75;4.32;;;25.90;56.10;;;;;;4816845;29;93402;-10
2021/08/14 12:22:21;;;;;;;10.20;3.63;;;25.90;56.10;;;;;;4814858;29;92858;-18
2021/08/14 12:24:48;;;;;;;12.00;3.50;;;25.90;55.90;;;;;;4798610;29;94038;-17
2021/08/14 12:27:32;;;;;;;10.82;4.15;;;26.00;55.70;;;;;;4816278;29;92569;-7
2021/08/14 12:30:17;;;;;;;11.43;3.80;;;25.90;55.60;;;;;;4815697;29;92995;-5
2021/08/14 12:32:47;;;;;;;10.13;4.03;;;25.90;55.60;;;;;;4816611;29;93006;-11
2021/08/14 12:35:24;;;;;;;9.82;3.88;;;25.80;55.50;;;;;;4816436;29;93463;-16
2021/08/14 12:37:50;;;;;;;9.55;3.42;;;26.10;55.60;;;;;;4816242;29;93079;-9
2021/08/14 12:40:19;;;;;;;8.45;3.50;;;25.90;55.60;;;;;;4829664;29;94209;-10
2021/08/14 12:42:45;;;;;;;10.25;3.78;;;26.00;55.70;;;;;;4815980;29;93041;-8
2021/08/14 12:45:15;;;;;;;8.93;3.88;;;26.10;55.70;;;;;;4815066;29;93368;-13
2021/08/14 12:47:41;;;;;;;8.43;3.60;;;25.90;55.60;;;;;;4812473;29;93231;-18
2021/08/14 12:50:27;;;;;;;10.43;3.83;;;25.90;55.70;;;;;;4799346;29;94148;-12
2021/08/14 12:52:59;;;;;;;8.63;3.90;;;25.90;55.80;;;;;;4814552;29;94128;-5